sensor_id;sensor_type;location;lat;lon;timestamp;P1;durP1;ratioP1;P2;durP2;ratioP2
40286;SDS011;25998;46.604;13.610;2023-02-26T00:02:19;1.35;;;0.88;;
40286;SDS011;25998;46.604;13.610;2023-02-26T00:05:30;1.63;;;1.00;;
40286;SDS011;25998;46.604;13.610;2023-02-26T00:08:40;1.77;;;0.90;;
40286;SDS011;25998;46.604;13.610;2023-02-26T00:11:51;0.60;;;0.60;;
40286;SDS011;25998;46.604;13.610;2023-02-26T00:15:03;0.90;;;0.70;;
40286;SDS011;25998;46.604;13.610;2023-02-26T00:18:15;1.20;;;0.90;;
40286;SDS011;25998;46.604;13.610;2023-02-26T00:21:27;1.40;;;0.90;;
40286;SDS011;25998;46.604;13.610;2023-02-26T00:24:39;2.47;;;1.40;;
40286;SDS011;25998;46.604;13.610;2023-02-26T00:27:51;1.10;;;0.90;;
40286;SDS011;25998;46.604;13.610;2023-02-26T00:31:02;1.55;;;0.90;;
40286;SDS011;25998;46.604;13.610;2023-02-26T00:34:14;2.33;;;1.00;;
40286;SDS011;25998;46.604;13.610;2023-02-26T00:41:00;1.40;;;0.90;;
40286;SDS011;25998;46.604;13.610;2023-02-26T00:44:11;1.17;;;0.80;;
40286;SDS011;25998;46.604;13.610;2023-02-26T00:50:47;3.33;;;1.55;;
40286;SDS011;25998;46.604;13.610;2023-02-26T00:54:26;1.83;;;1.20;;
40286;SDS011;25998;46.604;13.610;2023-02-26T00:57:39;1.10;;;0.80;;
40286;SDS011;25998;46.604;13.610;2023-02-26T01:00:49;1.30;;;0.85;;
40286;SDS011;25998;46.604;13.610;2023-02-26T01:04:00;1.65;;;0.90;;
40286;SDS011;25998;46.604;13.610;2023-02-26T01:07:11;1.52;;;1.00;;
40286;SDS011;25998;46.604;13.610;2023-02-26T01:10:23;1.13;;;0.80;;
40286;SDS011;25998;46.604;13.610;2023-02-26T01:13:34;1.15;;;0.70;;
40286;SDS011;25998;46.604;13.610;2023-02-26T01:16:53;1.02;;;0.70;;
40286;SDS011;25998;46.604;13.610;2023-02-26T01:20:13;1.30;;;0.70;;
40286;SDS011;25998;46.604;13.610;2023-02-26T01:23:31;1.58;;;0.80;;
40286;SDS011;25998;46.604;13.610;2023-02-26T01:26:46;0.50;;;0.50;;
40286;SDS011;25998;46.604;13.610;2023-02-26T01:29:59;0.47;;;0.47;;
40286;SDS011;25998;46.604;13.610;2023-02-26T01:33:16;0.82;;;0.63;;
40286;SDS011;25998;46.604;13.610;2023-02-26T01:36:40;0.93;;;0.50;;
40286;SDS011;25998;46.604;13.610;2023-02-26T01:44:12;1.13;;;0.70;;
40286;SDS011;25998;46.604;13.610;2023-02-26T01:47:10;0.80;;;0.60;;
40286;SDS011;25998;46.604;13.610;2023-02-26T01:50:27;0.73;;;0.60;;
40286;SDS011;25998;46.604;13.610;2023-02-26T01:53:39;0.88;;;0.60;;
40286;SDS011;25998;46.604;13.610;2023-02-26T01:57:06;0.77;;;0.70;;
40286;SDS011;25998;46.604;13.610;2023-02-26T02:00:23;2.35;;;0.80;;
40286;SDS011;25998;46.604;13.610;2023-02-26T02:03:36;1.55;;;0.85;;
40286;SDS011;25998;46.604;13.610;2023-02-26T02:06:49;2.08;;;0.93;;
40286;SDS011;25998;46.604;13.610;2023-02-26T02:09:59;0.90;;;0.70;;
40286;SDS011;25998;46.604;13.610;2023-02-26T02:26:56;1.00;;;0.60;;
40286;SDS011;25998;46.604;13.610;2023-02-26T02:34:22;2.17;;;0.80;;
40286;SDS011;25998;46.604;13.610;2023-02-26T02:37:47;1.70;;;0.90;;
40286;SDS011;25998;46.604;13.610;2023-02-26T02:41:10;1.23;;;0.80;;
40286;SDS011;25998;46.604;13.610;2023-02-26T02:44:28;1.67;;;0.90;;
40286;SDS011;25998;46.604;13.610;2023-02-26T02:47:43;2.33;;;1.00;;
40286;SDS011;25998;46.604;13.610;2023-02-26T02:51:01;1.23;;;0.75;;
40286;SDS011;25998;46.604;13.610;2023-02-26T02:54:28;1.20;;;0.80;;
40286;SDS011;25998;46.604;13.610;2023-02-26T02:57:57;1.60;;;0.70;;
40286;SDS011;25998;46.604;13.610;2023-02-26T03:01:10;1.35;;;0.90;;
40286;SDS011;25998;46.604;13.610;2023-02-26T03:04:25;1.15;;;0.93;;
40286;SDS011;25998;46.604;13.610;2023-02-26T03:07:38;1.67;;;0.93;;
40286;SDS011;25998;46.604;13.610;2023-02-26T03:10:54;0.90;;;0.57;;
40286;SDS011;25998;46.604;13.610;2023-02-26T03:14:06;0.77;;;0.60;;
40286;SDS011;25998;46.604;13.610;2023-02-26T03:21:03;0.98;;;0.80;;
40286;SDS011;25998;46.604;13.610;2023-02-26T03:24:33;1.17;;;0.90;;
40286;SDS011;25998;46.604;13.610;2023-02-26T03:27:59;1.60;;;1.00;;
40286;SDS011;25998;46.604;13.610;2023-02-26T03:31:19;1.65;;;0.90;;
40286;SDS011;25998;46.604;13.610;2023-02-26T03:38:14;1.42;;;0.98;;
40286;SDS011;25998;46.604;13.610;2023-02-26T03:41:33;1.83;;;1.00;;
40286;SDS011;25998;46.604;13.610;2023-02-26T03:44:50;1.15;;;0.80;;
40286;SDS011;25998;46.604;13.610;2023-02-26T03:48:06;2.33;;;0.90;;
40286;SDS011;25998;46.604;13.610;2023-02-26T03:51:19;1.10;;;0.80;;
40286;SDS011;25998;46.604;13.610;2023-02-26T03:54:33;2.03;;;1.13;;
40286;SDS011;25998;46.604;13.610;2023-02-26T03:57:51;1.30;;;0.93;;
40286;SDS011;25998;46.604;13.610;2023-02-26T04:01:03;1.48;;;0.80;;
40286;SDS011;25998;46.604;13.610;2023-02-26T04:04:20;1.88;;;0.90;;
40286;SDS011;25998;46.604;13.610;2023-02-26T04:07:39;2.60;;;0.90;;
40286;SDS011;25998;46.604;13.610;2023-02-26T04:10:52;1.45;;;1.00;;
40286;SDS011;25998;46.604;13.610;2023-02-26T04:14:07;0.75;;;0.70;;
40286;SDS011;25998;46.604;13.610;2023-02-26T04:17:18;1.20;;;0.80;;
40286;SDS011;25998;46.604;13.610;2023-02-26T04:20:29;2.08;;;0.90;;
40286;SDS011;25998;46.604;13.610;2023-02-26T04:23:40;0.88;;;0.70;;
40286;SDS011;25998;46.604;13.610;2023-02-26T04:26:51;0.95;;;0.70;;
40286;SDS011;25998;46.604;13.610;2023-02-26T04:30:02;1.27;;;0.75;;
40286;SDS011;25998;46.604;13.610;2023-02-26T04:33:13;1.05;;;0.80;;
40286;SDS011;25998;46.604;13.610;2023-02-26T04:36:25;2.35;;;1.00;;
40286;SDS011;25998;46.604;13.610;2023-02-26T04:39:36;1.70;;;0.93;;
40286;SDS011;25998;46.604;13.610;2023-02-26T04:42:46;0.73;;;0.70;;
40286;SDS011;25998;46.604;13.610;2023-02-26T04:45:57;0.82;;;0.70;;
40286;SDS011;25998;46.604;13.610;2023-02-26T04:49:08;1.00;;;0.75;;
40286;SDS011;25998;46.604;13.610;2023-02-26T04:52:19;0.90;;;0.77;;
40286;SDS011;25998;46.604;13.610;2023-02-26T04:55:30;1.00;;;0.80;;
40286;SDS011;25998;46.604;13.610;2023-02-26T04:58:41;1.38;;;0.80;;
40286;SDS011;25998;46.604;13.610;2023-02-26T05:01:52;1.98;;;1.10;;
40286;SDS011;25998;46.604;13.610;2023-02-26T05:05:03;1.10;;;0.82;;
40286;SDS011;25998;46.604;13.610;2023-02-26T05:08:14;1.60;;;0.82;;
40286;SDS011;25998;46.604;13.610;2023-02-26T05:11:25;1.70;;;1.10;;
40286;SDS011;25998;46.604;13.610;2023-02-26T05:14:35;1.48;;;1.00;;
40286;SDS011;25998;46.604;13.610;2023-02-26T05:17:46;1.60;;;1.00;;
40286;SDS011;25998;46.604;13.610;2023-02-26T05:20:57;1.42;;;1.00;;
40286;SDS011;25998;46.604;13.610;2023-02-26T05:24:08;1.75;;;0.90;;
40286;SDS011;25998;46.604;13.610;2023-02-26T05:27:19;1.60;;;0.90;;
40286;SDS011;25998;46.604;13.610;2023-02-26T05:30:30;2.17;;;1.27;;
40286;SDS011;25998;46.604;13.610;2023-02-26T05:33:41;3.08;;;1.75;;
40286;SDS011;25998;46.604;13.610;2023-02-26T05:36:52;1.95;;;1.20;;
40286;SDS011;25998;46.604;13.610;2023-02-26T05:40:04;1.90;;;1.10;;
40286;SDS011;25998;46.604;13.610;2023-02-26T05:43:18;1.55;;;1.10;;
40286;SDS011;25998;46.604;13.610;2023-02-26T05:46:29;1.50;;;1.08;;
40286;SDS011;25998;46.604;13.610;2023-02-26T05:49:40;1.80;;;1.20;;
40286;SDS011;25998;46.604;13.610;2023-02-26T05:52:50;1.67;;;1.10;;
40286;SDS011;25998;46.604;13.610;2023-02-26T05:56:01;1.60;;;1.00;;
40286;SDS011;25998;46.604;13.610;2023-02-26T05:59:14;2.65;;;1.75;;
40286;SDS011;25998;46.604;13.610;2023-02-26T06:02:25;2.20;;;1.20;;
40286;SDS011;25998;46.604;13.610;2023-02-26T06:05:36;1.95;;;1.20;;
40286;SDS011;25998;46.604;13.610;2023-02-26T06:08:47;2.33;;;1.23;;
40286;SDS011;25998;46.604;13.610;2023-02-26T06:11:58;2.30;;;0.90;;
40286;SDS011;25998;46.604;13.610;2023-02-26T06:15:09;2.15;;;1.27;;
40286;SDS011;25998;46.604;13.610;2023-02-26T06:18:20;1.45;;;0.82;;
40286;SDS011;25998;46.604;13.610;2023-02-26T06:21:31;2.45;;;1.25;;
40286;SDS011;25998;46.604;13.610;2023-02-26T06:24:41;2.13;;;1.10;;
40286;SDS011;25998;46.604;13.610;2023-02-26T06:27:52;2.53;;;1.30;;
40286;SDS011;25998;46.604;13.610;2023-02-26T06:31:03;2.08;;;1.15;;
40286;SDS011;25998;46.604;13.610;2023-02-26T06:34:14;1.73;;;1.00;;
40286;SDS011;25998;46.604;13.610;2023-02-26T06:37:25;2.45;;;1.20;;
40286;SDS011;25998;46.604;13.610;2023-02-26T06:40:36;1.90;;;1.30;;
40286;SDS011;25998;46.604;13.610;2023-02-26T06:43:47;2.72;;;1.50;;
40286;SDS011;25998;46.604;13.610;2023-02-26T06:46:58;3.58;;;1.35;;
40286;SDS011;25998;46.604;13.610;2023-02-26T06:50:09;1.95;;;1.30;;
40286;SDS011;25998;46.604;13.610;2023-02-26T06:53:20;1.70;;;1.10;;
40286;SDS011;25998;46.604;13.610;2023-02-26T06:56:31;2.75;;;1.63;;
40286;SDS011;25998;46.604;13.610;2023-02-26T06:59:42;3.78;;;1.67;;
40286;SDS011;25998;46.604;13.610;2023-02-26T07:02:53;2.00;;;1.10;;
40286;SDS011;25998;46.604;13.610;2023-02-26T07:06:04;2.08;;;1.33;;
40286;SDS011;25998;46.604;13.610;2023-02-26T07:09:17;1.80;;;1.27;;
40286;SDS011;25998;46.604;13.610;2023-02-26T07:12:30;2.40;;;1.23;;
40286;SDS011;25998;46.604;13.610;2023-02-26T07:15:41;2.08;;;1.20;;
40286;SDS011;25998;46.604;13.610;2023-02-26T07:18:52;1.80;;;1.30;;
40286;SDS011;25998;46.604;13.610;2023-02-26T07:22:02;2.85;;;1.40;;
40286;SDS011;25998;46.604;13.610;2023-02-26T07:25:13;3.00;;;1.30;;
40286;SDS011;25998;46.604;13.610;2023-02-26T07:28:24;2.33;;;1.40;;
40286;SDS011;25998;46.604;13.610;2023-02-26T07:31:35;11.57;;;6.35;;
40286;SDS011;25998;46.604;13.610;2023-02-26T07:34:46;40.80;;;17.33;;
40286;SDS011;25998;46.604;13.610;2023-02-26T07:37:57;28.42;;;13.75;;
40286;SDS011;25998;46.604;13.610;2023-02-26T07:41:08;7.60;;;4.30;;
40286;SDS011;25998;46.604;13.610;2023-02-26T07:44:19;2.95;;;1.27;;
40286;SDS011;25998;46.604;13.610;2023-02-26T07:47:29;2.50;;;1.55;;
40286;SDS011;25998;46.604;13.610;2023-02-26T07:50:40;2.20;;;1.40;;
40286;SDS011;25998;46.604;13.610;2023-02-26T07:53:51;6.32;;;2.55;;
40286;SDS011;25998;46.604;13.610;2023-02-26T07:57:02;5.90;;;4.38;;
40286;SDS011;25998;46.604;13.610;2023-02-26T08:00:13;3.03;;;1.85;;
40286;SDS011;25998;46.604;13.610;2023-02-26T08:03:25;5.18;;;3.08;;
40286;SDS011;25998;46.604;13.610;2023-02-26T08:06:36;3.05;;;2.28;;
40286;SDS011;25998;46.604;13.610;2023-02-26T08:09:47;3.75;;;1.95;;
40286;SDS011;25998;46.604;13.610;2023-02-26T08:12:58;2.55;;;1.60;;
40286;SDS011;25998;46.604;13.610;2023-02-26T08:16:08;1.75;;;1.30;;
40286;SDS011;25998;46.604;13.610;2023-02-26T08:19:19;3.35;;;1.50;;
40286;SDS011;25998;46.604;13.610;2023-02-26T08:22:30;2.40;;;1.52;;
40286;SDS011;25998;46.604;13.610;2023-02-26T08:25:41;2.42;;;1.48;;
40286;SDS011;25998;46.604;13.610;2023-02-26T08:28:52;3.33;;;1.70;;
40286;SDS011;25998;46.604;13.610;2023-02-26T08:32:03;3.00;;;1.67;;
40286;SDS011;25998;46.604;13.610;2023-02-26T08:35:14;3.92;;;1.60;;
40286;SDS011;25998;46.604;13.610;2023-02-26T08:38:25;2.45;;;1.60;;
40286;SDS011;25998;46.604;13.610;2023-02-26T08:41:36;3.30;;;2.03;;
40286;SDS011;25998;46.604;13.610;2023-02-26T08:44:47;6.03;;;3.92;;
40286;SDS011;25998;46.604;13.610;2023-02-26T08:47:58;4.90;;;3.72;;
40286;SDS011;25998;46.604;13.610;2023-02-26T08:51:09;2.30;;;1.52;;
40286;SDS011;25998;46.604;13.610;2023-02-26T08:54:20;2.35;;;1.35;;
40286;SDS011;25998;46.604;13.610;2023-02-26T08:57:31;2.75;;;1.77;;
40286;SDS011;25998;46.604;13.610;2023-02-26T09:00:42;3.95;;;2.40;;
40286;SDS011;25998;46.604;13.610;2023-02-26T09:03:52;6.05;;;4.32;;
40286;SDS011;25998;46.604;13.610;2023-02-26T09:07:03;3.20;;;1.92;;
40286;SDS011;25998;46.604;13.610;2023-02-26T09:10:14;3.70;;;2.20;;
40286;SDS011;25998;46.604;13.610;2023-02-26T09:13:26;3.60;;;1.63;;
40286;SDS011;25998;46.604;13.610;2023-02-26T09:16:37;2.85;;;1.73;;
40286;SDS011;25998;46.604;13.610;2023-02-26T09:19:48;2.95;;;1.67;;
40286;SDS011;25998;46.604;13.610;2023-02-26T09:22:58;2.80;;;1.90;;
40286;SDS011;25998;46.604;13.610;2023-02-26T09:26:09;2.50;;;1.80;;
40286;SDS011;25998;46.604;13.610;2023-02-26T09:29:20;3.65;;;2.20;;
40286;SDS011;25998;46.604;13.610;2023-02-26T09:32:33;4.40;;;2.17;;
40286;SDS011;25998;46.604;13.610;2023-02-26T09:35:46;13.73;;;7.85;;
40286;SDS011;25998;46.604;13.610;2023-02-26T09:39:00;2.90;;;1.90;;
40286;SDS011;25998;46.604;13.610;2023-02-26T09:42:22;8.30;;;3.53;;
40286;SDS011;25998;46.604;13.610;2023-02-26T09:45:55;2.30;;;1.60;;
40286;SDS011;25998;46.604;13.610;2023-02-26T09:49:19;3.38;;;1.95;;
40286;SDS011;25998;46.604;13.610;2023-02-26T09:56:27;5.22;;;3.28;;
40286;SDS011;25998;46.604;13.610;2023-02-26T09:59:46;2.08;;;1.30;;
40286;SDS011;25998;46.604;13.610;2023-02-26T10:03:04;2.45;;;1.60;;
40286;SDS011;25998;46.604;13.610;2023-02-26T10:09:43;2.10;;;1.20;;
40286;SDS011;25998;46.604;13.610;2023-02-26T10:13:01;4.25;;;2.33;;
40286;SDS011;25998;46.604;13.610;2023-02-26T10:16:22;3.35;;;2.25;;
40286;SDS011;25998;46.604;13.610;2023-02-26T10:19:42;4.70;;;2.60;;
40286;SDS011;25998;46.604;13.610;2023-02-26T10:23:01;3.35;;;1.70;;
40286;SDS011;25998;46.604;13.610;2023-02-26T10:26:18;2.88;;;1.50;;
40286;SDS011;25998;46.604;13.610;2023-02-26T10:29:35;1.90;;;1.30;;
40286;SDS011;25998;46.604;13.610;2023-02-26T10:33:05;2.00;;;1.40;;
40286;SDS011;25998;46.604;13.610;2023-02-26T13:02:50;2.50;;;1.80;;
40286;SDS011;25998;46.604;13.610;2023-02-26T13:06:52;3.03;;;1.95;;
40286;SDS011;25998;46.604;13.610;2023-02-26T13:10:23;3.58;;;1.80;;
40286;SDS011;25998;46.604;13.610;2023-02-26T13:14:17;3.10;;;1.85;;
40286;SDS011;25998;46.604;13.610;2023-02-26T13:20:54;2.20;;;1.70;;
40286;SDS011;25998;46.604;13.610;2023-02-26T13:24:17;2.20;;;1.75;;
40286;SDS011;25998;46.604;13.610;2023-02-26T13:27:35;3.30;;;2.08;;
40286;SDS011;25998;46.604;13.610;2023-02-26T13:30:48;2.63;;;1.90;;
40286;SDS011;25998;46.604;13.610;2023-02-26T13:34:03;2.58;;;1.92;;
40286;SDS011;25998;46.604;13.610;2023-02-26T13:40:55;2.65;;;1.90;;
40286;SDS011;25998;46.604;13.610;2023-02-26T13:54:49;3.28;;;2.15;;
40286;SDS011;25998;46.604;13.610;2023-02-26T13:58:11;2.67;;;2.00;;
40286;SDS011;25998;46.604;13.610;2023-02-26T14:01:34;3.72;;;2.15;;
40286;SDS011;25998;46.604;13.610;2023-02-26T14:04:59;2.72;;;2.10;;
40286;SDS011;25998;46.604;13.610;2023-02-26T14:12:02;2.58;;;2.00;;
40286;SDS011;25998;46.604;13.610;2023-02-26T14:15:31;3.03;;;1.90;;
40286;SDS011;25998;46.604;13.610;2023-02-26T14:19:18;3.30;;;2.35;;
40286;SDS011;25998;46.604;13.610;2023-02-26T14:22:36;2.67;;;2.10;;
40286;SDS011;25998;46.604;13.610;2023-02-26T14:25:52;2.80;;;2.10;;
40286;SDS011;25998;46.604;13.610;2023-02-26T14:32:21;3.45;;;2.20;;
40286;SDS011;25998;46.604;13.610;2023-02-26T14:35:47;3.35;;;2.30;;
40286;SDS011;25998;46.604;13.610;2023-02-26T14:39:01;2.80;;;1.90;;
40286;SDS011;25998;46.604;13.610;2023-02-26T14:42:31;2.75;;;2.05;;
40286;SDS011;25998;46.604;13.610;2023-02-26T14:45:46;3.17;;;2.50;;
40286;SDS011;25998;46.604;13.610;2023-02-26T14:48:58;2.35;;;1.80;;
40286;SDS011;25998;46.604;13.610;2023-02-26T14:59:38;2.58;;;2.05;;
40286;SDS011;25998;46.604;13.610;2023-02-26T15:24:04;2.20;;;1.80;;
40286;SDS011;25998;46.604;13.610;2023-02-26T15:27:19;3.22;;;2.13;;
40286;SDS011;25998;46.604;13.610;2023-02-26T15:30:31;2.88;;;2.13;;
40286;SDS011;25998;46.604;13.610;2023-02-26T15:33:46;2.88;;;2.08;;
40286;SDS011;25998;46.604;13.610;2023-02-26T15:36:58;3.75;;;1.98;;
40286;SDS011;25998;46.604;13.610;2023-02-26T15:40:13;2.78;;;1.70;;
40286;SDS011;25998;46.604;13.610;2023-02-26T15:43:24;8.88;;;2.70;;
40286;SDS011;25998;46.604;13.610;2023-02-26T15:46:40;2.78;;;2.15;;
40286;SDS011;25998;46.604;13.610;2023-02-26T15:49:55;2.40;;;1.80;;
40286;SDS011;25998;46.604;13.610;2023-02-26T15:53:11;2.35;;;1.80;;
40286;SDS011;25998;46.604;13.610;2023-02-26T15:56:27;2.83;;;2.50;;
40286;SDS011;25998;46.604;13.610;2023-02-26T15:59:44;2.88;;;2.35;;
40286;SDS011;25998;46.604;13.610;2023-02-26T16:02:57;2.60;;;1.60;;
40286;SDS011;25998;46.604;13.610;2023-02-26T16:06:12;2.60;;;2.10;;
40286;SDS011;25998;46.604;13.610;2023-02-26T16:09:28;11.73;;;2.80;;
40286;SDS011;25998;46.604;13.610;2023-02-26T16:12:45;3.00;;;2.08;;
40286;SDS011;25998;46.604;13.610;2023-02-26T16:16:01;4.53;;;2.47;;
40286;SDS011;25998;46.604;13.610;2023-02-26T16:19:20;3.50;;;2.25;;
40286;SDS011;25998;46.604;13.610;2023-02-26T16:22:45;3.00;;;2.20;;
40286;SDS011;25998;46.604;13.610;2023-02-26T16:26:05;3.90;;;2.60;;
40286;SDS011;25998;46.604;13.610;2023-02-26T16:29:20;3.15;;;2.03;;
40286;SDS011;25998;46.604;13.610;2023-02-26T16:32:37;4.18;;;2.80;;
40286;SDS011;25998;46.604;13.610;2023-02-26T16:35:53;3.15;;;2.15;;
40286;SDS011;25998;46.604;13.610;2023-02-26T16:39:16;4.63;;;3.30;;
40286;SDS011;25998;46.604;13.610;2023-02-26T16:45:58;54.90;;;26.17;;
40286;SDS011;25998;46.604;13.610;2023-02-26T16:52:35;54.58;;;26.60;;
40286;SDS011;25998;46.604;13.610;2023-02-26T16:55:52;8.27;;;5.03;;
40286;SDS011;25998;46.604;13.610;2023-02-26T17:02:33;3.60;;;3.00;;
40286;SDS011;25998;46.604;13.610;2023-02-26T17:05:53;3.08;;;2.50;;
40286;SDS011;25998;46.604;13.610;2023-02-26T17:09:23;3.42;;;2.35;;
40286;SDS011;25998;46.604;13.610;2023-02-26T17:15:58;19.38;;;9.23;;
40286;SDS011;25998;46.604;13.610;2023-02-26T17:19:12;13.85;;;7.35;;
40286;SDS011;25998;46.604;13.610;2023-02-26T17:22:24;9.38;;;5.00;;
40286;SDS011;25998;46.604;13.610;2023-02-26T17:25:38;12.23;;;6.15;;
40286;SDS011;25998;46.604;13.610;2023-02-26T17:28:54;3.88;;;2.78;;
40286;SDS011;25998;46.604;13.610;2023-02-26T17:32:06;25.98;;;17.65;;
40286;SDS011;25998;46.604;13.610;2023-02-26T17:35:28;36.78;;;21.40;;
40286;SDS011;25998;46.604;13.610;2023-02-26T17:38:40;32.65;;;22.40;;
40286;SDS011;25998;46.604;13.610;2023-02-26T17:41:56;10.85;;;7.53;;
40286;SDS011;25998;46.604;13.610;2023-02-26T17:45:07;30.40;;;24.25;;
40286;SDS011;25998;46.604;13.610;2023-02-26T17:48:22;6.88;;;5.72;;
40286;SDS011;25998;46.604;13.610;2023-02-26T17:55:13;4.32;;;2.53;;
40286;SDS011;25998;46.604;13.610;2023-02-26T17:58:27;3.53;;;2.60;;
40286;SDS011;25998;46.604;13.610;2023-02-26T18:01:41;3.88;;;2.70;;
40286;SDS011;25998;46.604;13.610;2023-02-26T18:04:52;5.18;;;3.75;;
40286;SDS011;25998;46.604;13.610;2023-02-26T18:08:04;2.55;;;1.85;;
40286;SDS011;25998;46.604;13.610;2023-02-26T18:11:18;2.75;;;1.70;;
40286;SDS011;25998;46.604;13.610;2023-02-26T18:14:31;3.72;;;1.75;;
40286;SDS011;25998;46.604;13.610;2023-02-26T18:17:49;2.40;;;1.80;;
40286;SDS011;25998;46.604;13.610;2023-02-26T18:21:09;2.30;;;1.70;;
40286;SDS011;25998;46.604;13.610;2023-02-26T18:24:20;3.15;;;1.85;;
40286;SDS011;25998;46.604;13.610;2023-02-26T18:27:37;2.30;;;1.63;;
40286;SDS011;25998;46.604;13.610;2023-02-26T18:30:55;4.85;;;1.80;;
40286;SDS011;25998;46.604;13.610;2023-02-26T18:34:18;2.17;;;1.38;;
40286;SDS011;25998;46.604;13.610;2023-02-26T18:41:44;2.80;;;1.50;;
40286;SDS011;25998;46.604;13.610;2023-02-26T18:45:00;2.00;;;1.50;;
40286;SDS011;25998;46.604;13.610;2023-02-26T18:48:19;2.35;;;1.60;;
40286;SDS011;25998;46.604;13.610;2023-02-26T18:51:30;2.38;;;1.70;;
40286;SDS011;25998;46.604;13.610;2023-02-26T18:54:44;2.38;;;1.67;;
40286;SDS011;25998;46.604;13.610;2023-02-26T19:02:03;3.72;;;2.67;;
40286;SDS011;25998;46.604;13.610;2023-02-26T19:05:15;3.83;;;2.50;;
40286;SDS011;25998;46.604;13.610;2023-02-26T19:08:32;6.45;;;3.60;;
40286;SDS011;25998;46.604;13.610;2023-02-26T19:11:43;4.82;;;3.05;;
40286;SDS011;25998;46.604;13.610;2023-02-26T19:14:54;3.67;;;2.72;;
40286;SDS011;25998;46.604;13.610;2023-02-26T19:18:08;4.47;;;2.80;;
40286;SDS011;25998;46.604;13.610;2023-02-26T19:21:22;3.67;;;2.38;;
40286;SDS011;25998;46.604;13.610;2023-02-26T19:24:40;5.25;;;2.85;;
40286;SDS011;25998;46.604;13.610;2023-02-26T19:28:07;3.63;;;2.30;;
40286;SDS011;25998;46.604;13.610;2023-02-26T19:31:33;4.95;;;2.83;;
40286;SDS011;25998;46.604;13.610;2023-02-26T19:34:55;5.68;;;3.42;;
40286;SDS011;25998;46.604;13.610;2023-02-26T19:38:06;6.18;;;4.20;;
40286;SDS011;25998;46.604;13.610;2023-02-26T19:41:19;5.32;;;3.20;;
40286;SDS011;25998;46.604;13.610;2023-02-26T19:44:30;5.63;;;3.10;;
40286;SDS011;25998;46.604;13.610;2023-02-26T19:47:41;3.38;;;2.42;;
40286;SDS011;25998;46.604;13.610;2023-02-26T19:50:53;2.90;;;2.38;;
40286;SDS011;25998;46.604;13.610;2023-02-26T19:54:04;4.25;;;2.40;;
40286;SDS011;25998;46.604;13.610;2023-02-26T19:57:15;3.60;;;2.63;;
40286;SDS011;25998;46.604;13.610;2023-02-26T20:00:26;2.70;;;1.92;;
40286;SDS011;25998;46.604;13.610;2023-02-26T20:03:37;3.33;;;2.40;;
40286;SDS011;25998;46.604;13.610;2023-02-26T20:06:48;4.38;;;2.83;;
40286;SDS011;25998;46.604;13.610;2023-02-26T20:09:59;5.15;;;3.10;;
40286;SDS011;25998;46.604;13.610;2023-02-26T20:13:11;3.70;;;2.45;;
40286;SDS011;25998;46.604;13.610;2023-02-26T20:16:22;4.80;;;2.67;;
40286;SDS011;25998;46.604;13.610;2023-02-26T20:19:33;3.63;;;2.72;;
40286;SDS011;25998;46.604;13.610;2023-02-26T20:22:44;3.92;;;3.03;;
40286;SDS011;25998;46.604;13.610;2023-02-26T20:25:56;3.88;;;2.72;;
40286;SDS011;25998;46.604;13.610;2023-02-26T20:29:07;3.45;;;2.55;;
40286;SDS011;25998;46.604;13.610;2023-02-26T20:32:18;4.22;;;2.47;;
40286;SDS011;25998;46.604;13.610;2023-02-26T20:35:29;4.32;;;2.60;;
40286;SDS011;25998;46.604;13.610;2023-02-26T20:38:40;3.35;;;2.63;;
40286;SDS011;25998;46.604;13.610;2023-02-26T20:41:51;3.22;;;2.42;;
40286;SDS011;25998;46.604;13.610;2023-02-26T20:45:03;2.95;;;2.45;;
40286;SDS011;25998;46.604;13.610;2023-02-26T20:48:16;3.72;;;2.72;;
40286;SDS011;25998;46.604;13.610;2023-02-26T20:51:27;3.58;;;2.50;;
40286;SDS011;25998;46.604;13.610;2023-02-26T20:54:38;3.72;;;2.38;;
40286;SDS011;25998;46.604;13.610;2023-02-26T20:57:49;4.10;;;2.55;;
40286;SDS011;25998;46.604;13.610;2023-02-26T21:01:00;3.33;;;2.33;;
40286;SDS011;25998;46.604;13.610;2023-02-26T21:04:17;5.28;;;2.90;;
40286;SDS011;25998;46.604;13.610;2023-02-26T21:07:53;3.33;;;2.17;;
40286;SDS011;25998;46.604;13.610;2023-02-26T21:14:48;3.53;;;2.40;;
40286;SDS011;25998;46.604;13.610;2023-02-26T21:18:08;4.88;;;2.60;;
40286;SDS011;25998;46.604;13.610;2023-02-26T21:21:24;4.30;;;2.58;;
40286;SDS011;25998;46.604;13.610;2023-02-26T21:24:38;3.53;;;2.30;;
40286;SDS011;25998;46.604;13.610;2023-02-26T21:27:49;4.00;;;2.80;;
40286;SDS011;25998;46.604;13.610;2023-02-26T21:31:00;5.53;;;2.65;;
40286;SDS011;25998;46.604;13.610;2023-02-26T21:34:14;4.18;;;2.80;;
40286;SDS011;25998;46.604;13.610;2023-02-26T21:37:25;4.50;;;2.47;;
40286;SDS011;25998;46.604;13.610;2023-02-26T21:40:36;3.45;;;2.60;;
40286;SDS011;25998;46.604;13.610;2023-02-26T21:43:48;3.92;;;2.55;;
40286;SDS011;25998;46.604;13.610;2023-02-26T21:47:02;3.50;;;2.80;;
40286;SDS011;25998;46.604;13.610;2023-02-26T21:50:13;3.97;;;2.63;;
40286;SDS011;25998;46.604;13.610;2023-02-26T21:53:24;9.23;;;2.95;;
40286;SDS011;25998;46.604;13.610;2023-02-26T21:56:39;6.35;;;3.50;;
40286;SDS011;25998;46.604;13.610;2023-02-26T21:59:52;4.28;;;2.63;;
40286;SDS011;25998;46.604;13.610;2023-02-26T22:03:03;3.50;;;2.15;;
40286;SDS011;25998;46.604;13.610;2023-02-26T22:06:14;3.45;;;2.40;;
40286;SDS011;25998;46.604;13.610;2023-02-26T22:09:25;3.08;;;1.85;;
40286;SDS011;25998;46.604;13.610;2023-02-26T22:12:38;3.58;;;2.08;;
40286;SDS011;25998;46.604;13.610;2023-02-26T22:15:52;3.38;;;2.17;;
40286;SDS011;25998;46.604;13.610;2023-02-26T22:19:03;3.00;;;2.28;;
40286;SDS011;25998;46.604;13.610;2023-02-26T22:22:14;3.40;;;2.13;;
40286;SDS011;25998;46.604;13.610;2023-02-26T22:25:25;3.92;;;2.42;;
40286;SDS011;25998;46.604;13.610;2023-02-26T22:28:37;3.20;;;2.20;;
40286;SDS011;25998;46.604;13.610;2023-02-26T22:31:47;2.83;;;2.08;;
40286;SDS011;25998;46.604;13.610;2023-02-26T22:34:59;3.22;;;2.22;;
40286;SDS011;25998;46.604;13.610;2023-02-26T22:38:12;2.60;;;1.95;;
40286;SDS011;25998;46.604;13.610;2023-02-26T22:41:26;2.85;;;2.15;;
40286;SDS011;25998;46.604;13.610;2023-02-26T22:44:40;3.38;;;2.15;;
40286;SDS011;25998;46.604;13.610;2023-02-26T22:47:51;5.03;;;2.50;;
40286;SDS011;25998;46.604;13.610;2023-02-26T22:51:02;3.20;;;2.20;;
40286;SDS011;25998;46.604;13.610;2023-02-26T22:54:16;3.20;;;2.30;;
40286;SDS011;25998;46.604;13.610;2023-02-26T22:57:27;3.00;;;2.00;;
40286;SDS011;25998;46.604;13.610;2023-02-26T23:00:44;2.50;;;1.67;;
40286;SDS011;25998;46.604;13.610;2023-02-26T23:03:58;3.03;;;2.10;;
40286;SDS011;25998;46.604;13.610;2023-02-26T23:07:11;8.25;;;3.05;;
40286;SDS011;25998;46.604;13.610;2023-02-26T23:10:23;4.05;;;1.95;;
40286;SDS011;25998;46.604;13.610;2023-02-26T23:13:34;3.20;;;1.90;;
40286;SDS011;25998;46.604;13.610;2023-02-26T23:16:47;2.53;;;1.90;;
40286;SDS011;25998;46.604;13.610;2023-02-26T23:19:58;2.75;;;1.88;;
40286;SDS011;25998;46.604;13.610;2023-02-26T23:23:09;3.20;;;2.20;;
40286;SDS011;25998;46.604;13.610;2023-02-26T23:26:20;3.28;;;2.20;;
40286;SDS011;25998;46.604;13.610;2023-02-26T23:29:32;4.47;;;2.20;;
40286;SDS011;25998;46.604;13.610;2023-02-26T23:32:43;3.17;;;2.35;;
40286;SDS011;25998;46.604;13.610;2023-02-26T23:35:55;2.92;;;2.10;;
40286;SDS011;25998;46.604;13.610;2023-02-26T23:39:06;2.85;;;1.80;;
40286;SDS011;25998;46.604;13.610;2023-02-26T23:42:18;3.30;;;2.50;;
40286;SDS011;25998;46.604;13.610;2023-02-26T23:45:32;5.07;;;2.80;;